createdAt,value
2019-02-02T00:00:47.916Z,39.60
2019-02-02T00:03:16.054Z,39.39
2019-02-02T00:05:45.791Z,39.73
2019-02-02T00:08:15.053Z,39.55
2019-02-02T00:10:45.391Z,39.55
2019-02-02T00:13:16.915Z,39.18
2019-02-02T00:15:46.740Z,38.97
2019-02-02T00:18:16.572Z,38.97
2019-02-02T00:21:00.581Z,39.18
2019-02-02T00:23:30.729Z,39.43
2019-02-02T00:25:59.895Z,39.43
2019-02-02T00:28:29.947Z,39.83
2019-02-02T00:31:00.637Z,39.93
2019-02-02T00:36:00.852Z,39.73
2019-02-02T00:38:29.646Z,39.73
2019-02-02T00:40:59.267Z,39.50
2019-02-02T00:43:29.781Z,39.22
2019-02-02T00:45:59.163Z,38.91
2019-02-02T00:48:28.925Z,38.91
2019-02-02T00:51:00.352Z,38.53
2019-02-02T00:53:30.340Z,39.29
2019-02-02T00:57:04.697Z,39.61
2019-02-02T00:59:34.229Z,39.61
2019-02-02T01:02:04.750Z,39.00
2019-02-02T01:04:33.741Z,39.00
2019-02-02T01:07:04.714Z,38.99
2019-02-02T01:09:33.821Z,38.93
2019-02-02T01:12:05.077Z,38.87
2019-02-02T01:17:20.758Z,39.41
2019-02-02T01:19:51.032Z,39.42
2019-02-02T01:22:21.558Z,39.68
2019-02-02T01:24:53.117Z,39.59
2019-02-02T01:27:21.066Z,39.59
2019-02-02T01:29:51.047Z,39.83
2019-02-02T01:32:21.297Z,39.73
2019-02-02T01:34:51.060Z,39.20
2019-02-02T01:37:20.355Z,38.96
2019-02-02T01:39:49.688Z,39.06
2019-02-02T01:42:18.711Z,38.70
2019-02-02T01:44:48.924Z,38.94
2019-02-02T01:47:20.156Z,39.48
2019-02-02T01:49:50.664Z,39.30
2019-02-02T01:52:18.889Z,39.30
2019-02-02T01:54:48.919Z,39.33
2019-02-02T01:57:19.358Z,39.29
2019-02-02T01:59:48.027Z,39.29
2019-02-02T02:02:16.062Z,39.72
2019-02-02T02:04:43.875Z,39.59
2019-02-02T02:07:13.045Z,39.26
2019-02-02T02:09:42.769Z,39.02
2019-02-02T02:12:12.577Z,39.02
2019-02-02T02:14:40.878Z,39.04
2019-02-02T02:17:09.791Z,38.89
2019-02-02T02:19:38.781Z,38.89
2019-02-02T02:22:09.039Z,38.72
2019-02-02T02:24:38.935Z,39.23
2019-02-02T02:27:07.646Z,39.17
2019-02-02T02:29:36.656Z,39.42
2019-02-02T02:32:05.805Z,39.42
2019-02-02T02:34:35.040Z,39.32
2019-02-02T02:37:04.146Z,39.05
2019-02-02T02:39:32.859Z,39.05
2019-02-02T02:42:01.705Z,39.64
2019-02-02T02:44:32.806Z,39.58
2019-02-02T02:47:03.965Z,38.88
2019-02-02T02:49:33.176Z,38.88
2019-02-02T02:52:02.579Z,38.92
2019-02-02T02:54:30.952Z,38.91
2019-02-02T02:57:00.714Z,38.58
2019-02-02T02:59:28.733Z,39.24
2019-02-02T03:01:58.360Z,39.68
2019-02-02T03:04:27.792Z,39.03
2019-02-02T03:06:57.228Z,39.03
2019-02-02T03:09:25.068Z,39.22
2019-02-02T03:11:53.044Z,39.39
2019-02-02T03:14:21.669Z,39.51
2019-02-02T03:16:50.341Z,39.09
2019-02-02T03:19:19.912Z,39.47
2019-02-02T03:21:49.034Z,39.32
2019-02-02T03:24:19.938Z,38.84
2019-02-02T03:26:48.818Z,39.39
2019-02-02T03:29:18.680Z,39.39
2019-02-02T03:31:48.762Z,38.92
2019-02-02T03:34:18.329Z,38.91
2019-02-02T03:36:47.806Z,39.34
2019-02-02T03:39:16.842Z,39.34
2019-02-02T03:41:45.126Z,39.27
2019-02-02T03:44:13.719Z,39.27
2019-02-02T03:46:42.903Z,39.24
2019-02-02T03:49:12.332Z,39.24
2019-02-02T03:51:41.722Z,39.60
2019-02-02T03:54:10.603Z,39.04
2019-02-02T03:56:39.817Z,39.04
2019-02-02T03:59:07.775Z,39.45
2019-02-02T04:01:36.896Z,39.37
2019-02-02T04:04:06.577Z,39.09
2019-02-02T04:06:35.029Z,39.05
2019-02-02T04:09:06.846Z,39.12
2019-02-02T04:11:36.661Z,38.52
2019-02-02T04:14:06.696Z,39.10
2019-02-02T04:16:35.462Z,39.18
2019-02-02T04:19:03.770Z,39.18
2019-02-02T04:21:32.063Z,39.24
2019-02-02T04:24:00.886Z,39.17
2019-02-02T04:26:29.655Z,39.02
2019-02-02T04:28:59.431Z,39.07
2019-02-02T04:31:29.126Z,39.48
2019-02-02T04:33:58.905Z,39.43
2019-02-02T04:36:28.705Z,39.18
2019-02-02T04:38:58.342Z,38.91
2019-02-02T04:41:27.952Z,38.74
2019-02-02T04:43:58.120Z,38.39
2019-02-02T04:46:26.946Z,38.84
2019-02-02T04:48:56.772Z,38.81
2019-02-02T04:51:24.954Z,38.81
2019-02-02T04:53:52.711Z,39.21
2019-02-02T04:56:22.720Z,39.21
2019-02-02T04:58:51.870Z,39.19
2019-02-02T05:01:20.745Z,39.17
2019-02-02T05:03:48.903Z,39.17
2019-02-02T05:06:19.632Z,39.17
2019-02-02T05:08:49.104Z,39.06
2019-02-02T05:11:17.981Z,39.06
2019-02-02T05:13:46.653Z,39.16
2019-02-02T05:16:14.734Z,39.16
2019-02-02T05:18:44.744Z,39.03
2019-02-02T05:21:14.677Z,39.03
2019-02-02T05:23:45.073Z,38.85
2019-02-02T05:26:14.742Z,38.65
2019-02-02T05:28:42.549Z,38.65
2019-02-02T05:31:11.696Z,38.91
2019-02-02T05:33:39.307Z,39.11
2019-02-02T05:36:07.672Z,39.47
2019-02-02T05:38:38.076Z,39.07
2019-02-02T05:41:06.064Z,39.07
2019-02-02T05:43:34.804Z,39.52
2019-02-02T05:46:05.065Z,39.52
2019-02-02T05:48:32.936Z,38.69
2019-02-02T05:51:02.328Z,39.45
2019-02-02T05:53:30.860Z,39.55
2019-02-02T05:56:00.747Z,39.55
2019-02-02T05:58:29.993Z,38.73
2019-02-02T06:00:58.009Z,38.56
2019-02-02T06:03:26.606Z,38.85
2019-02-02T06:05:56.798Z,39.10
2019-02-02T06:08:25.362Z,39.10
2019-02-02T06:10:53.626Z,38.92
2019-02-02T06:13:24.277Z,39.11
2019-02-02T06:15:54.197Z,39.11
2019-02-02T06:18:23.990Z,39.16
2019-02-02T06:23:37.982Z,39.19
2019-02-02T06:26:07.334Z,39.21
2019-02-02T06:28:38.602Z,39.21
2019-02-02T06:31:05.798Z,38.92
2019-02-02T06:33:35.721Z,38.79
2019-02-02T06:36:24.773Z,38.85
2019-02-02T06:38:54.625Z,38.96
2019-02-02T06:41:24.016Z,38.97
2019-02-02T06:43:54.144Z,39.17
2019-02-02T06:46:24.873Z,39.17
2019-02-02T06:48:54.731Z,39.33
2019-02-02T06:51:25.010Z,39.33
2019-02-02T06:53:57.131Z,39.79
2019-02-02T06:58:22.333Z,39.26
2019-02-02T07:00:51.575Z,39.33
2019-02-02T07:03:22.696Z,39.33
2019-02-02T07:05:53.803Z,39.49
2019-02-02T07:08:22.713Z,39.01
2019-02-02T07:10:52.744Z,39.01
2019-02-02T07:13:22.923Z,38.86
2019-02-02T07:15:53.070Z,39.08
2019-02-02T07:18:23.391Z,39.13
2019-02-02T07:20:53.005Z,39.44
2019-02-02T07:23:46.384Z,39.44
2019-02-02T07:26:14.685Z,39.33
2019-02-02T07:28:49.113Z,39.06
2019-02-02T07:31:18.619Z,39.12
2019-02-02T07:33:46.892Z,39.38
2019-02-02T07:36:18.957Z,39.21
2019-02-02T07:38:48.241Z,38.46
2019-02-02T07:41:46.282Z,38.46
2019-02-02T07:44:21.397Z,39.09
2019-02-02T07:46:51.905Z,39.09
2019-02-02T07:49:22.271Z,39.24
2019-02-02T07:51:52.820Z,39.01
2019-02-02T07:54:24.304Z,39.01
2019-02-02T07:56:54.091Z,39.19
2019-02-02T07:59:23.686Z,39.19
2019-02-02T08:01:54.807Z,39.35
2019-02-02T08:04:26.090Z,38.72
2019-02-02T08:06:55.762Z,38.67
2019-02-02T08:09:25.611Z,38.67
2019-02-02T08:11:54.854Z,38.53
2019-02-02T08:14:24.799Z,39.18
2019-02-02T08:17:24.959Z,39.18
2019-02-02T08:19:54.739Z,39.13
2019-02-02T08:22:25.460Z,38.96
2019-02-02T08:24:55.665Z,39.19
2019-02-02T08:27:26.301Z,39.08
2019-02-02T08:29:56.798Z,39.08
2019-02-02T08:32:30.984Z,38.70
2019-02-02T08:34:59.642Z,38.38
2019-02-02T08:37:28.634Z,38.38
2019-02-02T08:39:58.012Z,38.29
2019-02-02T08:42:27.082Z,38.49
2019-02-02T08:44:56.371Z,38.49
2019-02-02T08:47:25.644Z,39.03
2019-02-02T08:49:55.385Z,38.96
2019-02-02T08:52:24.477Z,38.96
2019-02-02T08:54:54.917Z,38.96
2019-02-02T08:57:24.050Z,38.74
2019-02-02T08:59:53.702Z,38.74
2019-02-02T09:03:05.643Z,39.16
2019-02-02T09:05:38.410Z,38.88
2019-02-02T09:08:07.983Z,38.46
2019-02-02T09:10:37.624Z,38.46
2019-02-02T09:13:08.700Z,39.16
2019-02-02T09:15:39.455Z,34.15
2019-02-02T09:18:21.374Z,32.85
2019-02-02T09:20:51.916Z,32.31
2019-02-02T09:23:21.096Z,32.31
2019-02-02T09:25:51.005Z,32.90
2019-02-02T09:28:20.716Z,32.46
2019-02-02T09:30:50.635Z,35.39
2019-02-02T09:33:21.683Z,35.39
2019-02-02T09:35:51.637Z,35.11
2019-02-02T09:38:22.787Z,35.05
2019-02-02T09:40:51.747Z,35.78
2019-02-02T09:43:20.993Z,35.45
2019-02-02T09:45:54.898Z,35.45
2019-02-02T09:48:24.948Z,36.09
2019-02-02T09:50:54.131Z,36.09
2019-02-02T09:53:25.446Z,36.13
2019-02-02T09:55:54.263Z,36.13
2019-02-02T09:58:23.733Z,36.64
2019-02-02T10:01:48.072Z,36.55
2019-02-02T10:04:17.871Z,36.67
2019-02-02T10:06:48.752Z,37.14
2019-02-02T10:10:44.643Z,36.59
2019-02-02T10:13:12.738Z,36.50
2019-02-02T10:15:40.610Z,37.01
2019-02-02T10:18:10.672Z,37.28
2019-02-02T10:20:39.861Z,37.28
2019-02-02T10:23:10.541Z,37.28
2019-02-02T10:25:39.782Z,37.28
2019-02-02T10:28:08.523Z,37.10
2019-02-02T10:30:39.617Z,37.10
2019-02-02T10:33:07.689Z,37.19
2019-02-02T10:47:54.672Z,36.77
2019-02-02T10:50:24.066Z,36.77
2019-02-02T10:52:54.034Z,36.78
2019-02-02T10:55:23.703Z,36.55
2019-02-02T10:57:52.769Z,36.55
2019-02-02T11:00:25.807Z,36.87
2019-02-02T11:02:54.400Z,37.09
2019-02-02T11:05:24.675Z,37.19
2019-02-02T11:07:56.517Z,37.21
2019-02-02T11:10:28.109Z,36.81
2019-02-02T11:12:57.926Z,36.37
2019-02-02T11:15:27.531Z,35.71
2019-02-02T11:17:57.297Z,35.71
2019-02-02T11:20:30.503Z,36.27
2019-02-02T11:22:59.780Z,35.65
2019-02-02T11:25:38.850Z,35.65
2019-02-02T11:28:07.932Z,35.53
2019-02-02T11:30:36.909Z,35.57
2019-02-02T11:33:08.896Z,36.08
2019-02-02T11:35:37.780Z,36.44
2019-02-02T11:38:09.771Z,36.43
2019-02-02T11:40:39.416Z,36.43
2019-02-02T11:43:09.290Z,36.26
2019-02-02T11:45:42.769Z,36.13
2019-02-02T11:48:11.680Z,36.13
2019-02-02T11:50:41.104Z,36.00
2019-02-02T11:53:13.706Z,35.95
2019-02-02T11:55:43.711Z,36.08
2019-02-02T11:58:13.364Z,36.51
2019-02-02T12:00:42.651Z,36.51
2019-02-02T12:03:13.411Z,36.41
2019-02-02T12:05:43.814Z,36.41
2019-02-02T12:08:14.601Z,36.53
2019-02-02T12:10:45.014Z,36.47
2019-02-02T12:13:14.304Z,36.65
2019-02-02T12:15:46.016Z,36.65
2019-02-02T12:18:14.844Z,36.50
2019-02-02T12:20:43.962Z,35.84
2019-02-02T12:23:12.813Z,35.84
2019-02-02T12:25:42.462Z,36.43
2019-02-02T12:29:48.578Z,36.07
2019-02-02T12:32:26.697Z,35.65
2019-02-02T12:34:51.433Z,35.42
2019-02-02T12:37:19.263Z,35.57
2019-02-02T12:39:46.897Z,35.59
2019-02-02T12:42:14.441Z,35.73
2019-02-02T12:44:42.680Z,35.51
2019-02-02T12:47:10.392Z,35.53
2019-02-02T12:49:38.852Z,35.72
2019-02-02T12:52:06.611Z,36.28
2019-02-02T12:54:35.492Z,36.28
2019-02-02T12:57:03.274Z,36.28
2019-02-02T12:59:31.462Z,36.28
2019-02-02T13:01:59.451Z,36.51
2019-02-02T13:04:27.986Z,36.24
2019-02-02T13:06:57.333Z,36.24
2019-02-02T13:09:24.616Z,36.24
2019-02-02T13:11:56.194Z,36.50
2019-02-02T13:14:25.691Z,36.50
2019-02-02T13:16:55.759Z,36.63
2019-02-02T13:19:25.090Z,35.80
2019-02-02T13:21:53.669Z,36.36
2019-02-02T13:24:24.584Z,36.36
2019-02-02T13:26:53.970Z,36.26
2019-02-02T13:29:23.148Z,36.53
2019-02-02T13:31:52.876Z,36.08
2019-02-02T13:34:23.563Z,36.43
2019-02-02T13:36:51.973Z,36.43
2019-02-02T13:39:22.893Z,36.51
2019-02-02T13:41:51.665Z,36.16
2019-02-02T13:44:20.538Z,36.63
2019-02-02T13:46:50.009Z,36.63
2019-02-02T13:49:19.633Z,36.56
2019-02-02T13:51:49.725Z,36.56
2019-02-02T13:54:19.463Z,36.57
2019-02-02T13:56:49.882Z,35.96
2019-02-02T13:59:18.946Z,35.35
2019-02-02T14:01:47.819Z,35.35
2019-02-02T14:04:16.997Z,35.50
2019-02-02T14:06:47.659Z,35.49
2019-02-02T14:09:15.685Z,35.49
2019-02-02T14:11:43.583Z,36.03
2019-02-02T14:14:13.026Z,36.38
2019-02-02T14:16:43.087Z,33.86
2019-02-02T14:19:13.088Z,33.79
2019-02-02T14:21:43.502Z,33.79
2019-02-02T14:24:14.938Z,35.06
2019-02-02T14:26:44.144Z,35.21
2019-02-02T14:29:14.768Z,35.21
2019-02-02T14:31:43.740Z,37.73
2019-02-02T14:34:13.577Z,37.21
2019-02-02T14:36:42.822Z,38.00
2019-02-02T14:39:13.689Z,37.90
2019-02-02T14:41:42.458Z,37.90
2019-02-02T14:46:58.500Z,37.91
2019-02-02T14:49:27.960Z,37.91
2019-02-02T14:51:56.183Z,37.88
2019-02-02T14:54:25.845Z,38.25
2019-02-02T14:56:59.018Z,37.84
2019-02-02T14:59:29.941Z,38.24
2019-02-02T15:01:58.893Z,39.37
2019-02-02T15:04:30.571Z,38.65
2019-02-02T15:06:59.333Z,38.65
2019-02-02T15:09:29.930Z,37.95
2019-02-02T15:12:00.841Z,38.69
2019-02-02T15:14:33.109Z,38.90
2019-02-02T15:17:03.530Z,38.90
2019-02-02T15:20:51.127Z,38.27
2019-02-02T15:23:24.286Z,38.08
2019-02-02T15:25:54.149Z,38.08
2019-02-02T15:28:26.361Z,38.82
2019-02-02T15:30:56.419Z,38.82
2019-02-02T15:33:37.588Z,38.60
2019-02-02T15:35:58.638Z,38.60
2019-02-02T15:38:44.932Z,38.10
2019-02-02T15:41:23.440Z,38.10
2019-02-02T15:44:04.907Z,38.25
2019-02-02T15:46:49.050Z,39.65
2019-02-02T15:49:23.474Z,39.60
2019-02-02T15:52:00.685Z,39.29
2019-02-02T15:54:36.091Z,39.29
2019-02-02T15:57:17.363Z,40.09
2019-02-02T15:59:57.847Z,38.79
2019-02-02T16:05:12.548Z,39.05
2019-02-02T16:07:58.847Z,38.98
2019-02-02T16:10:58.560Z,39.30
2019-02-02T16:13:38.659Z,39.30
2019-02-02T16:16:30.059Z,39.12
2019-02-02T16:19:04.045Z,40.33
2019-02-02T16:21:46.139Z,39.68
2019-02-02T16:26:31.291Z,40.24
2019-02-02T16:29:01.797Z,40.25
2019-02-02T16:31:32.794Z,39.88
2019-02-02T16:36:11.640Z,39.83
2019-02-02T16:38:42.869Z,41.30
2019-02-02T16:41:11.632Z,41.19
2019-02-02T16:43:43.085Z,40.51
2019-02-02T16:46:13.208Z,40.51
2019-02-02T16:48:46.007Z,41.40
2019-02-02T16:52:37.390Z,41.25
2019-02-02T16:55:10.429Z,41.07
2019-02-02T16:57:41.615Z,41.53
2019-02-02T17:00:22.100Z,41.53
2019-02-02T17:02:52.650Z,41.78
2019-02-02T17:05:23.780Z,42.49
2019-02-02T17:10:41.812Z,42.46
2019-02-02T17:13:11.633Z,42.57
2019-02-02T17:15:47.678Z,42.47
2019-02-02T17:18:16.188Z,42.47
2019-02-02T17:20:46.531Z,42.02
2019-02-02T17:23:16.720Z,41.94
2019-02-02T17:25:49.632Z,42.52
2019-02-02T17:28:19.939Z,42.39
2019-02-02T17:30:50.030Z,42.39
2019-02-02T17:33:21.515Z,42.54
2019-02-02T17:35:49.933Z,42.79
2019-02-02T17:38:21.019Z,41.96
2019-02-02T17:40:56.228Z,41.96
2019-02-02T17:43:27.684Z,42.21
2019-02-02T17:45:57.994Z,42.01
2019-02-02T17:50:42.279Z,41.66
2019-02-02T17:53:12.564Z,42.13
2019-02-02T17:55:42.619Z,42.13
2019-02-02T17:58:13.482Z,42.53
2019-02-02T18:00:50.790Z,41.71
2019-02-02T18:04:59.660Z,41.69
2019-02-02T18:07:29.986Z,41.69
2019-02-02T18:09:59.734Z,41.98
2019-02-02T18:12:29.202Z,41.98
2019-02-02T18:17:29.066Z,42.90
2019-02-02T18:19:58.663Z,42.90
2019-02-02T18:22:30.431Z,43.12
2019-02-02T18:25:03.723Z,42.87
2019-02-02T18:27:33.840Z,43.11
2019-02-02T18:30:11.706Z,43.19
2019-02-02T18:32:43.778Z,43.19
2019-02-02T18:35:15.640Z,42.81
2019-02-02T18:37:46.698Z,42.63
2019-02-02T18:40:16.716Z,42.53
2019-02-02T18:42:48.939Z,42.78
2019-02-02T18:46:55.899Z,42.59
2019-02-02T18:49:26.471Z,42.38
2019-02-02T18:52:37.874Z,42.58
2019-02-02T18:55:11.488Z,42.58
2019-02-02T18:57:46.023Z,43.01
2019-02-02T19:00:22.707Z,42.40
2019-02-02T19:02:57.133Z,42.49
2019-02-02T19:05:29.275Z,42.49
2019-02-02T19:08:53.503Z,42.63
2019-02-02T19:11:27.884Z,42.63
2019-02-02T19:14:01.377Z,42.83
2019-02-02T19:16:34.904Z,42.90
2019-02-02T19:19:08.822Z,42.83
2019-02-02T19:21:43.187Z,42.48
2019-02-02T19:24:15.560Z,42.48
2019-02-02T19:26:46.443Z,42.28
2019-02-02T19:29:21.651Z,42.70
2019-02-02T19:31:55.942Z,42.29
2019-02-02T19:34:30.282Z,42.33
2019-02-02T19:37:02.819Z,42.27
2019-02-02T19:39:36.500Z,42.43
2019-02-02T19:42:10.643Z,42.94
2019-02-02T19:46:37.630Z,42.98
2019-02-02T19:49:11.846Z,42.40
2019-02-02T19:51:46.581Z,42.20
2019-02-02T19:54:21.761Z,42.20
2019-02-02T19:56:57.296Z,42.48
2019-02-02T19:59:36.261Z,42.48
2019-02-02T20:02:11.825Z,41.19
2019-02-02T20:04:46.070Z,42.60
2019-02-02T20:07:21.002Z,42.60
2019-02-02T20:09:57.819Z,42.44
2019-02-02T20:14:57.158Z,42.12
2019-02-02T20:17:30.944Z,42.12
2019-02-02T20:20:06.446Z,42.07
2019-02-02T20:22:44.751Z,42.37
2019-02-02T20:25:21.997Z,42.25
2019-02-02T20:27:59.684Z,42.25
2019-02-02T20:30:36.223Z,42.14
2019-02-02T20:33:12.179Z,42.53
2019-02-02T20:35:48.583Z,42.13
2019-02-02T20:38:22.201Z,42.13
2019-02-02T20:40:56.165Z,45.80
2019-02-02T20:43:32.324Z,45.80
2019-02-02T20:46:06.854Z,43.65
2019-02-02T20:48:40.615Z,43.17
2019-02-02T20:51:14.860Z,42.85
2019-02-02T20:53:52.480Z,42.85
2019-02-02T20:56:26.124Z,48.05
2019-02-02T20:59:01.912Z,48.05
2019-02-02T21:01:36.456Z,48.29
2019-02-02T21:04:10.905Z,47.16
2019-02-02T21:06:44.975Z,47.16
2019-02-02T21:09:17.782Z,46.23
2019-02-02T21:11:56.943Z,45.13
2019-02-02T21:14:28.900Z,44.91
2019-02-02T21:17:02.233Z,44.17
2019-02-02T21:21:59.016Z,43.71
2019-02-02T21:24:33.741Z,43.63
2019-02-02T21:27:42.756Z,43.29
2019-02-02T21:30:23.707Z,43.50
2019-02-02T21:32:53.942Z,43.50
2019-02-02T21:36:49.644Z,43.44
2019-02-02T21:39:22.937Z,43.38
2019-02-02T21:41:55.364Z,43.14
2019-02-02T21:44:29.970Z,43.07
2019-02-02T21:47:04.075Z,43.17
2019-02-02T21:49:36.702Z,42.99
2019-02-02T21:52:11.010Z,42.68
2019-02-02T21:54:44.771Z,42.77
2019-02-02T21:57:15.499Z,43.15
2019-02-02T21:59:48.717Z,43.15
2019-02-02T22:02:22.337Z,43.05
2019-02-02T22:04:54.038Z,42.99
2019-02-02T22:07:26.210Z,44.55
2019-02-02T22:09:56.877Z,43.69
2019-02-02T22:12:28.930Z,43.26
2019-02-02T22:15:25.857Z,43.13
2019-02-02T22:17:58.151Z,43.09
2019-02-02T22:20:28.311Z,42.83
2019-02-02T22:22:59.411Z,46.06
2019-02-02T22:25:33.158Z,49.13
2019-02-02T22:28:03.049Z,49.13
2019-02-02T22:30:36.160Z,46.46
2019-02-02T22:33:07.632Z,46.46
2019-02-02T22:38:23.034Z,48.08
2019-02-02T22:40:53.217Z,48.39
2019-02-02T22:43:23.071Z,48.39
2019-02-02T22:45:52.610Z,48.00
2019-02-02T22:48:21.664Z,48.00
2019-02-02T22:52:27.982Z,46.56
2019-02-02T22:54:58.081Z,46.56
2019-02-02T22:57:26.663Z,46.82
2019-02-02T22:59:56.029Z,45.72
2019-02-02T23:02:26.495Z,45.72
2019-02-02T23:05:24.412Z,44.43
2019-02-02T23:08:44.830Z,43.55
2019-02-02T23:11:35.559Z,43.53
2019-02-02T23:14:51.332Z,43.21
2019-02-02T23:17:20.753Z,43.21
2019-02-02T23:19:49.057Z,42.84
2019-02-02T23:22:18.844Z,42.84
2019-02-02T23:27:10.723Z,42.57
2019-02-02T23:29:39.984Z,42.58
2019-02-02T23:32:08.842Z,42.58
2019-02-02T23:34:37.318Z,42.47
2019-02-02T23:37:09.378Z,42.47
2019-02-02T23:39:39.597Z,42.73
2019-02-02T23:42:09.430Z,42.86
2019-02-02T23:44:40.049Z,42.60
2019-02-02T23:47:11.722Z,42.06
2019-02-02T23:49:41.884Z,42.14
2019-02-02T23:52:13.555Z,41.91
2019-02-02T23:54:43.726Z,41.91
2019-02-02T23:57:15.085Z,42.14
2019-02-02T23:59:46.852Z,45.05
